sensor_id;sensor_type;location;lat;lon;timestamp;temperature;humidity
8914;DHT22;4492;48.736;9.092;2023-02-28T00:00:35;-3.30;98.60
8914;DHT22;4492;48.736;9.092;2023-02-28T00:03:01;-3.30;98.50
8914;DHT22;4492;48.736;9.092;2023-02-28T00:05:27;-3.40;98.80
8914;DHT22;4492;48.736;9.092;2023-02-28T00:07:53;-3.40;99.00
8914;DHT22;4492;48.736;9.092;2023-02-28T00:10:22;-3.50;99.10
8914;DHT22;4492;48.736;9.092;2023-02-28T00:12:49;-3.60;99.50
8914;DHT22;4492;48.736;9.092;2023-02-28T00:15:16;-3.60;99.80
8914;DHT22;4492;48.736;9.092;2023-02-28T00:17:42;-3.60;99.80
8914;DHT22;4492;48.736;9.092;2023-02-28T00:20:08;-3.50;99.80
8914;DHT22;4492;48.736;9.092;2023-02-28T00:22:36;-3.50;99.90
8914;DHT22;4492;48.736;9.092;2023-02-28T00:25:02;-3.60;99.90
8914;DHT22;4492;48.736;9.092;2023-02-28T00:27:27;-3.60;99.90
8914;DHT22;4492;48.736;9.092;2023-02-28T00:29:53;-3.70;99.90
8914;DHT22;4492;48.736;9.092;2023-02-28T00:32:19;-3.60;99.90
8914;DHT22;4492;48.736;9.092;2023-02-28T00:34:45;-3.60;99.90
8914;DHT22;4492;48.736;9.092;2023-02-28T00:37:11;-3.60;99.90
8914;DHT22;4492;48.736;9.092;2023-02-28T00:39:38;-3.70;99.90
8914;DHT22;4492;48.736;9.092;2023-02-28T00:42:04;-3.80;99.90
8914;DHT22;4492;48.736;9.092;2023-02-28T00:44:30;-3.80;99.90
8914;DHT22;4492;48.736;9.092;2023-02-28T00:46:56;-3.80;99.90
8914;DHT22;4492;48.736;9.092;2023-02-28T00:49:23;-3.90;99.90
8914;DHT22;4492;48.736;9.092;2023-02-28T00:51:49;-3.90;99.90
8914;DHT22;4492;48.736;9.092;2023-02-28T00:54:15;-3.90;99.90
8914;DHT22;4492;48.736;9.092;2023-02-28T00:56:40;-3.90;99.90
8914;DHT22;4492;48.736;9.092;2023-02-28T00:59:06;-3.80;99.90
8914;DHT22;4492;48.736;9.092;2023-02-28T01:01:32;-3.80;99.90
8914;DHT22;4492;48.736;9.092;2023-02-28T01:03:57;-3.80;99.90
8914;DHT22;4492;48.736;9.092;2023-02-28T01:06:23;-3.80;99.90
8914;DHT22;4492;48.736;9.092;2023-02-28T01:08:49;-3.80;99.90
8914;DHT22;4492;48.736;9.092;2023-02-28T01:11:15;-3.90;99.90
8914;DHT22;4492;48.736;9.092;2023-02-28T01:13:42;-3.90;99.90
8914;DHT22;4492;48.736;9.092;2023-02-28T01:16:08;-3.90;99.90
8914;DHT22;4492;48.736;9.092;2023-02-28T01:18:34;-3.80;99.90
8914;DHT22;4492;48.736;9.092;2023-02-28T01:21:07;-3.80;99.90
8914;DHT22;4492;48.736;9.092;2023-02-28T01:23:33;-3.80;99.90
8914;DHT22;4492;48.736;9.092;2023-02-28T01:26:15;-3.80;99.90
8914;DHT22;4492;48.736;9.092;2023-02-28T01:28:41;-3.80;99.90
8914;DHT22;4492;48.736;9.092;2023-02-28T01:31:07;-3.90;99.90
8914;DHT22;4492;48.736;9.092;2023-02-28T01:33:33;-3.90;99.90
8914;DHT22;4492;48.736;9.092;2023-02-28T01:36:00;-3.90;99.90
8914;DHT22;4492;48.736;9.092;2023-02-28T01:38:26;-3.90;99.90
8914;DHT22;4492;48.736;9.092;2023-02-28T01:40:52;-3.90;99.90
8914;DHT22;4492;48.736;9.092;2023-02-28T01:43:32;-3.90;99.90
8914;DHT22;4492;48.736;9.092;2023-02-28T01:45:58;-3.90;99.90
8914;DHT22;4492;48.736;9.092;2023-02-28T01:48:36;-4.00;99.90
8914;DHT22;4492;48.736;9.092;2023-02-28T01:51:06;-4.00;99.90
8914;DHT22;4492;48.736;9.092;2023-02-28T01:53:38;-4.10;99.90
8914;DHT22;4492;48.736;9.092;2023-02-28T01:56:07;-4.00;99.90
8914;DHT22;4492;48.736;9.092;2023-02-28T01:58:34;-3.90;99.90
8914;DHT22;4492;48.736;9.092;2023-02-28T02:01:00;-4.00;99.90
8914;DHT22;4492;48.736;9.092;2023-02-28T02:03:29;-4.00;99.90
8914;DHT22;4492;48.736;9.092;2023-02-28T02:05:54;-3.90;99.90
8914;DHT22;4492;48.736;9.092;2023-02-28T02:08:24;-4.00;99.90
8914;DHT22;4492;48.736;9.092;2023-02-28T02:10:56;-4.00;99.90
8914;DHT22;4492;48.736;9.092;2023-02-28T02:16:15;-4.00;99.90
8914;DHT22;4492;48.736;9.092;2023-02-28T02:18:47;-4.10;99.90
8914;DHT22;4492;48.736;9.092;2023-02-28T02:24:26;-3.90;99.90
8914;DHT22;4492;48.736;9.092;2023-02-28T02:27:16;-3.90;99.90
8914;DHT22;4492;48.736;9.092;2023-02-28T02:33:24;-3.90;99.90
8914;DHT22;4492;48.736;9.092;2023-02-28T02:36:07;-3.90;99.90
8914;DHT22;4492;48.736;9.092;2023-02-28T02:41:54;-3.90;99.90
8914;DHT22;4492;48.736;9.092;2023-02-28T02:47:04;-3.80;99.90
8914;DHT22;4492;48.736;9.092;2023-02-28T02:49:32;-3.70;99.90
8914;DHT22;4492;48.736;9.092;2023-02-28T02:52:05;-3.70;99.90
8914;DHT22;4492;48.736;9.092;2023-02-28T02:54:35;-3.70;99.90
8914;DHT22;4492;48.736;9.092;2023-02-28T02:57:05;-3.60;99.90
8914;DHT22;4492;48.736;9.092;2023-02-28T02:59:36;-3.60;99.90
8914;DHT22;4492;48.736;9.092;2023-02-28T03:02:06;-3.60;99.90
8914;DHT22;4492;48.736;9.092;2023-02-28T03:04:39;-3.50;99.90
8914;DHT22;4492;48.736;9.092;2023-02-28T03:07:05;-3.50;99.90
8914;DHT22;4492;48.736;9.092;2023-02-28T03:09:33;-3.50;99.90
8914;DHT22;4492;48.736;9.092;2023-02-28T03:12:01;-3.50;99.90
8914;DHT22;4492;48.736;9.092;2023-02-28T03:17:35;-3.40;99.90
8914;DHT22;4492;48.736;9.092;2023-02-28T03:22:50;-3.40;99.90
8914;DHT22;4492;48.736;9.092;2023-02-28T03:25:29;-3.30;99.90
8914;DHT22;4492;48.736;9.092;2023-02-28T03:28:33;-3.30;99.90
8914;DHT22;4492;48.736;9.092;2023-02-28T03:33:47;-3.30;99.90
8914;DHT22;4492;48.736;9.092;2023-02-28T03:36:23;-3.30;99.90
8914;DHT22;4492;48.736;9.092;2023-02-28T03:39:19;-3.30;99.90
8914;DHT22;4492;48.736;9.092;2023-02-28T03:41:51;-3.30;99.90
8914;DHT22;4492;48.736;9.092;2023-02-28T03:44:22;-3.30;99.90
8914;DHT22;4492;48.736;9.092;2023-02-28T03:47:04;-3.30;99.90
8914;DHT22;4492;48.736;9.092;2023-02-28T03:49:35;-3.30;99.90
8914;DHT22;4492;48.736;9.092;2023-02-28T03:52:04;-3.30;99.90
8914;DHT22;4492;48.736;9.092;2023-02-28T03:54:35;-3.30;99.90
8914;DHT22;4492;48.736;9.092;2023-02-28T03:59:56;-3.30;99.90
8914;DHT22;4492;48.736;9.092;2023-02-28T04:02:24;-3.30;99.90
8914;DHT22;4492;48.736;9.092;2023-02-28T04:04:50;-3.20;99.90
8914;DHT22;4492;48.736;9.092;2023-02-28T04:07:16;-3.20;99.90
8914;DHT22;4492;48.736;9.092;2023-02-28T04:09:42;-3.20;99.90
8914;DHT22;4492;48.736;9.092;2023-02-28T04:12:08;-3.20;99.90
8914;DHT22;4492;48.736;9.092;2023-02-28T04:14:34;-3.20;99.90
8914;DHT22;4492;48.736;9.092;2023-02-28T04:16:59;-3.20;99.90
8914;DHT22;4492;48.736;9.092;2023-02-28T04:19:25;-3.20;99.90
8914;DHT22;4492;48.736;9.092;2023-02-28T04:21:52;-3.20;99.90
8914;DHT22;4492;48.736;9.092;2023-02-28T04:24:26;-3.20;99.90
8914;DHT22;4492;48.736;9.092;2023-02-28T04:26:54;-3.20;99.90
8914;DHT22;4492;48.736;9.092;2023-02-28T04:29:25;-3.20;99.90
8914;DHT22;4492;48.736;9.092;2023-02-28T04:31:52;-3.10;99.90
8914;DHT22;4492;48.736;9.092;2023-02-28T04:34:25;-3.10;99.90
8914;DHT22;4492;48.736;9.092;2023-02-28T04:36:51;-3.10;99.90
8914;DHT22;4492;48.736;9.092;2023-02-28T04:39:20;-3.10;99.90
8914;DHT22;4492;48.736;9.092;2023-02-28T04:41:45;-3.10;99.90
8914;DHT22;4492;48.736;9.092;2023-02-28T04:44:12;-3.10;99.90
8914;DHT22;4492;48.736;9.092;2023-02-28T04:46:38;-3.10;99.90
8914;DHT22;4492;48.736;9.092;2023-02-28T04:49:03;-3.00;99.90
8914;DHT22;4492;48.736;9.092;2023-02-28T04:51:29;-3.10;99.90
8914;DHT22;4492;48.736;9.092;2023-02-28T04:53:54;-3.00;99.90
8914;DHT22;4492;48.736;9.092;2023-02-28T04:56:20;-3.00;99.90
8914;DHT22;4492;48.736;9.092;2023-02-28T04:58:46;-2.90;99.90
8914;DHT22;4492;48.736;9.092;2023-02-28T05:03:45;-3.00;99.90
8914;DHT22;4492;48.736;9.092;2023-02-28T05:06:12;-3.00;99.90
8914;DHT22;4492;48.736;9.092;2023-02-28T05:08:38;-3.00;99.90
8914;DHT22;4492;48.736;9.092;2023-02-28T05:11:06;-2.90;99.90
8914;DHT22;4492;48.736;9.092;2023-02-28T05:13:31;-2.90;99.90
8914;DHT22;4492;48.736;9.092;2023-02-28T05:15:57;-2.90;99.90
8914;DHT22;4492;48.736;9.092;2023-02-28T05:18:23;-2.90;99.90
8914;DHT22;4492;48.736;9.092;2023-02-28T05:20:48;-2.90;99.90
8914;DHT22;4492;48.736;9.092;2023-02-28T05:23:15;-2.90;99.90
8914;DHT22;4492;48.736;9.092;2023-02-28T05:25:41;-2.90;99.90
8914;DHT22;4492;48.736;9.092;2023-02-28T05:28:07;-2.90;99.90
8914;DHT22;4492;48.736;9.092;2023-02-28T05:30:33;-2.90;99.90
8914;DHT22;4492;48.736;9.092;2023-02-28T05:32:59;-2.90;99.90
8914;DHT22;4492;48.736;9.092;2023-02-28T05:35:25;-2.90;99.90
8914;DHT22;4492;48.736;9.092;2023-02-28T05:37:51;-2.90;99.90
8914;DHT22;4492;48.736;9.092;2023-02-28T05:40:17;-2.90;99.90
8914;DHT22;4492;48.736;9.092;2023-02-28T05:42:42;-2.90;99.90
8914;DHT22;4492;48.736;9.092;2023-02-28T05:45:09;-2.90;99.90
8914;DHT22;4492;48.736;9.092;2023-02-28T05:47:35;-2.90;99.90
8914;DHT22;4492;48.736;9.092;2023-02-28T05:50:01;-2.90;99.90
8914;DHT22;4492;48.736;9.092;2023-02-28T05:52:27;-2.90;99.90
8914;DHT22;4492;48.736;9.092;2023-02-28T05:54:52;-2.90;99.90
8914;DHT22;4492;48.736;9.092;2023-02-28T05:57:18;-2.90;99.90
8914;DHT22;4492;48.736;9.092;2023-02-28T05:59:44;-2.90;99.90
8914;DHT22;4492;48.736;9.092;2023-02-28T06:02:12;-2.90;99.90
8914;DHT22;4492;48.736;9.092;2023-02-28T06:04:38;-2.80;99.90
8914;DHT22;4492;48.736;9.092;2023-02-28T06:07:06;-2.80;99.90
8914;DHT22;4492;48.736;9.092;2023-02-28T06:09:32;-2.90;99.90
8914;DHT22;4492;48.736;9.092;2023-02-28T06:12:00;-2.80;99.90
8914;DHT22;4492;48.736;9.092;2023-02-28T06:14:28;-2.90;99.90
8914;DHT22;4492;48.736;9.092;2023-02-28T06:16:53;-2.90;99.90
8914;DHT22;4492;48.736;9.092;2023-02-28T06:19:19;-2.80;99.90
8914;DHT22;4492;48.736;9.092;2023-02-28T06:21:44;-2.90;99.90
8914;DHT22;4492;48.736;9.092;2023-02-28T06:24:10;-2.90;99.90
8914;DHT22;4492;48.736;9.092;2023-02-28T06:26:36;-2.90;99.90
8914;DHT22;4492;48.736;9.092;2023-02-28T06:29:02;-2.90;99.90
8914;DHT22;4492;48.736;9.092;2023-02-28T06:31:28;-2.90;99.90
8914;DHT22;4492;48.736;9.092;2023-02-28T06:33:54;-2.90;99.90
8914;DHT22;4492;48.736;9.092;2023-02-28T06:36:20;-2.90;99.90
8914;DHT22;4492;48.736;9.092;2023-02-28T06:38:46;-2.90;99.90
8914;DHT22;4492;48.736;9.092;2023-02-28T06:41:17;-2.80;99.90
8914;DHT22;4492;48.736;9.092;2023-02-28T06:43:43;-2.80;99.90
8914;DHT22;4492;48.736;9.092;2023-02-28T06:46:12;-2.80;99.90
8914;DHT22;4492;48.736;9.092;2023-02-28T06:48:39;-2.70;99.90
8914;DHT22;4492;48.736;9.092;2023-02-28T06:51:08;-2.70;99.90
8914;DHT22;4492;48.736;9.092;2023-02-28T06:53:34;-2.70;99.90
8914;DHT22;4492;48.736;9.092;2023-02-28T06:56:03;-2.70;99.90
8914;DHT22;4492;48.736;9.092;2023-02-28T06:58:29;-2.70;99.90
8914;DHT22;4492;48.736;9.092;2023-02-28T07:00:54;-2.70;99.90
8914;DHT22;4492;48.736;9.092;2023-02-28T07:03:20;-2.70;99.90
8914;DHT22;4492;48.736;9.092;2023-02-28T07:05:45;-2.60;99.90
8914;DHT22;4492;48.736;9.092;2023-02-28T07:08:11;-2.60;99.90
8914;DHT22;4492;48.736;9.092;2023-02-28T07:10:38;-2.60;99.90
8914;DHT22;4492;48.736;9.092;2023-02-28T07:13:04;-2.50;99.90
8914;DHT22;4492;48.736;9.092;2023-02-28T07:15:30;-2.50;99.90
8914;DHT22;4492;48.736;9.092;2023-02-28T07:17:55;-2.50;99.90
8914;DHT22;4492;48.736;9.092;2023-02-28T07:20:22;-2.50;99.90
8914;DHT22;4492;48.736;9.092;2023-02-28T07:22:48;-2.50;99.90
8914;DHT22;4492;48.736;9.092;2023-02-28T07:25:21;-2.40;99.90
8914;DHT22;4492;48.736;9.092;2023-02-28T07:27:46;-2.40;99.90
8914;DHT22;4492;48.736;9.092;2023-02-28T07:30:12;-2.30;99.90
8914;DHT22;4492;48.736;9.092;2023-02-28T07:32:38;-2.30;99.90
8914;DHT22;4492;48.736;9.092;2023-02-28T07:35:04;-2.30;99.90
8914;DHT22;4492;48.736;9.092;2023-02-28T07:37:30;-2.30;99.90
8914;DHT22;4492;48.736;9.092;2023-02-28T07:39:57;-2.30;99.90
8914;DHT22;4492;48.736;9.092;2023-02-28T07:42:22;-2.20;99.90
8914;DHT22;4492;48.736;9.092;2023-02-28T07:44:48;-2.20;99.90
8914;DHT22;4492;48.736;9.092;2023-02-28T07:47:13;-2.20;99.90
8914;DHT22;4492;48.736;9.092;2023-02-28T07:49:39;-2.10;99.90
8914;DHT22;4492;48.736;9.092;2023-02-28T07:52:06;-2.10;99.90
8914;DHT22;4492;48.736;9.092;2023-02-28T07:54:32;-2.00;99.90
8914;DHT22;4492;48.736;9.092;2023-02-28T07:56:58;-2.00;99.90
8914;DHT22;4492;48.736;9.092;2023-02-28T07:59:23;-2.00;99.90
8914;DHT22;4492;48.736;9.092;2023-02-28T08:01:49;-2.00;99.90
8914;DHT22;4492;48.736;9.092;2023-02-28T08:04:17;-1.90;99.90
8914;DHT22;4492;48.736;9.092;2023-02-28T08:06:42;-1.90;99.90
8914;DHT22;4492;48.736;9.092;2023-02-28T08:09:08;-1.80;99.90
8914;DHT22;4492;48.736;9.092;2023-02-28T08:11:33;-1.80;99.90
8914;DHT22;4492;48.736;9.092;2023-02-28T08:13:59;-1.70;99.90
8914;DHT22;4492;48.736;9.092;2023-02-28T08:16:25;-1.70;99.90
8914;DHT22;4492;48.736;9.092;2023-02-28T08:18:53;-1.70;99.90
8914;DHT22;4492;48.736;9.092;2023-02-28T08:21:20;-1.70;99.90
8914;DHT22;4492;48.736;9.092;2023-02-28T08:23:50;-1.80;99.90
8914;DHT22;4492;48.736;9.092;2023-02-28T08:26:17;-1.80;99.90
8914;DHT22;4492;48.736;9.092;2023-02-28T08:28:42;-1.70;99.90
8914;DHT22;4492;48.736;9.092;2023-02-28T08:31:10;-1.70;99.90
8914;DHT22;4492;48.736;9.092;2023-02-28T08:33:37;-1.70;99.90
8914;DHT22;4492;48.736;9.092;2023-02-28T08:36:05;-1.70;99.90
8914;DHT22;4492;48.736;9.092;2023-02-28T08:38:30;-1.60;99.90
8914;DHT22;4492;48.736;9.092;2023-02-28T08:41:01;-1.50;99.90
8914;DHT22;4492;48.736;9.092;2023-02-28T08:43:28;-1.40;99.90
8914;DHT22;4492;48.736;9.092;2023-02-28T08:45:55;-1.30;99.90
8914;DHT22;4492;48.736;9.092;2023-02-28T08:48:23;-1.40;99.90
8914;DHT22;4492;48.736;9.092;2023-02-28T08:50:59;-1.40;99.90
8914;DHT22;4492;48.736;9.092;2023-02-28T08:53:25;-1.40;99.90
8914;DHT22;4492;48.736;9.092;2023-02-28T08:55:59;-1.30;99.90
8914;DHT22;4492;48.736;9.092;2023-02-28T08:58:25;-1.40;99.90
8914;DHT22;4492;48.736;9.092;2023-02-28T09:00:51;-1.40;99.90
8914;DHT22;4492;48.736;9.092;2023-02-28T09:03:16;-1.30;99.90
8914;DHT22;4492;48.736;9.092;2023-02-28T09:05:55;-1.30;99.90
8914;DHT22;4492;48.736;9.092;2023-02-28T09:08:21;-1.30;99.90
8914;DHT22;4492;48.736;9.092;2023-02-28T09:10:46;-1.40;99.90
8914;DHT22;4492;48.736;9.092;2023-02-28T09:13:12;-1.40;99.90
8914;DHT22;4492;48.736;9.092;2023-02-28T09:15:38;-1.40;99.90
8914;DHT22;4492;48.736;9.092;2023-02-28T09:18:04;-1.40;99.90
8914;DHT22;4492;48.736;9.092;2023-02-28T09:20:30;-1.30;99.90
8914;DHT22;4492;48.736;9.092;2023-02-28T09:22:55;-1.30;99.90
8914;DHT22;4492;48.736;9.092;2023-02-28T09:25:21;-1.20;99.90
8914;DHT22;4492;48.736;9.092;2023-02-28T09:27:46;-1.20;99.90
8914;DHT22;4492;48.736;9.092;2023-02-28T09:30:12;-1.10;99.90
8914;DHT22;4492;48.736;9.092;2023-02-28T09:32:38;-1.10;99.90
8914;DHT22;4492;48.736;9.092;2023-02-28T09:35:04;-1.10;99.90
8914;DHT22;4492;48.736;9.092;2023-02-28T09:37:30;-1.00;99.90
8914;DHT22;4492;48.736;9.092;2023-02-28T09:39:56;-1.00;99.90
8914;DHT22;4492;48.736;9.092;2023-02-28T09:42:28;-1.00;99.90
8914;DHT22;4492;48.736;9.092;2023-02-28T09:44:56;-0.90;99.90
8914;DHT22;4492;48.736;9.092;2023-02-28T09:47:43;-0.80;99.90
8914;DHT22;4492;48.736;9.092;2023-02-28T09:50:32;-0.60;99.90
8914;DHT22;4492;48.736;9.092;2023-02-28T09:53:01;-0.50;99.90
8914;DHT22;4492;48.736;9.092;2023-02-28T09:55:42;-0.50;99.90
8914;DHT22;4492;48.736;9.092;2023-02-28T09:58:20;-0.30;99.90
8914;DHT22;4492;48.736;9.092;2023-02-28T10:00:56;-0.30;99.90
8914;DHT22;4492;48.736;9.092;2023-02-28T10:03:32;-0.10;99.90
8914;DHT22;4492;48.736;9.092;2023-02-28T10:06:06;0.00;99.90
8914;DHT22;4492;48.736;9.092;2023-02-28T10:08:55;0.10;99.90
8914;DHT22;4492;48.736;9.092;2023-02-28T10:11:23;-0.10;99.90
8914;DHT22;4492;48.736;9.092;2023-02-28T10:14:02;0.10;99.90
8914;DHT22;4492;48.736;9.092;2023-02-28T10:16:40;0.30;99.90
8914;DHT22;4492;48.736;9.092;2023-02-28T10:19:16;0.40;99.70
8914;DHT22;4492;48.736;9.092;2023-02-28T10:21:49;0.50;99.40
8914;DHT22;4492;48.736;9.092;2023-02-28T10:24:37;0.60;99.30
8914;DHT22;4492;48.736;9.092;2023-02-28T10:27:16;0.70;98.80
8914;DHT22;4492;48.736;9.092;2023-02-28T10:29:45;0.80;99.00
8914;DHT22;4492;48.736;9.092;2023-02-28T10:32:14;0.90;98.60
8914;DHT22;4492;48.736;9.092;2023-02-28T10:34:40;0.80;98.50
8914;DHT22;4492;48.736;9.092;2023-02-28T10:37:06;0.70;98.30
8914;DHT22;4492;48.736;9.092;2023-02-28T10:42:05;0.70;98.30
8914;DHT22;4492;48.736;9.092;2023-02-28T10:44:30;0.70;98.10
8914;DHT22;4492;48.736;9.092;2023-02-28T10:46:56;0.70;98.20
8914;DHT22;4492;48.736;9.092;2023-02-28T10:49:26;0.70;98.50
8914;DHT22;4492;48.736;9.092;2023-02-28T10:51:56;0.70;98.30
8914;DHT22;4492;48.736;9.092;2023-02-28T10:54:34;0.80;98.40
8914;DHT22;4492;48.736;9.092;2023-02-28T10:57:16;0.80;97.90
8914;DHT22;4492;48.736;9.092;2023-02-28T10:59:43;0.90;97.50
8914;DHT22;4492;48.736;9.092;2023-02-28T11:02:39;1.00;97.60
8914;DHT22;4492;48.736;9.092;2023-02-28T11:05:31;1.10;97.30
8914;DHT22;4492;48.736;9.092;2023-02-28T11:08:06;1.20;97.40
8914;DHT22;4492;48.736;9.092;2023-02-28T11:10:32;1.30;96.90
8914;DHT22;4492;48.736;9.092;2023-02-28T11:13:00;1.30;96.90
8914;DHT22;4492;48.736;9.092;2023-02-28T11:15:29;1.10;97.00
8914;DHT22;4492;48.736;9.092;2023-02-28T11:17:58;1.00;97.30
8914;DHT22;4492;48.736;9.092;2023-02-28T11:20:28;1.20;96.90
8914;DHT22;4492;48.736;9.092;2023-02-28T11:22:56;1.10;97.40
8914;DHT22;4492;48.736;9.092;2023-02-28T11:25:25;1.30;97.20
8914;DHT22;4492;48.736;9.092;2023-02-28T11:27:57;1.50;96.40
8914;DHT22;4492;48.736;9.092;2023-02-28T11:30:35;1.30;96.10
8914;DHT22;4492;48.736;9.092;2023-02-28T11:35:48;1.10;96.70
8914;DHT22;4492;48.736;9.092;2023-02-28T11:38:14;0.90;96.90
8914;DHT22;4492;48.736;9.092;2023-02-28T11:40:54;0.80;97.10
8914;DHT22;4492;48.736;9.092;2023-02-28T11:43:36;0.70;97.50
8914;DHT22;4492;48.736;9.092;2023-02-28T11:46:46;0.70;97.60
8914;DHT22;4492;48.736;9.092;2023-02-28T11:51:48;0.80;97.60
8914;DHT22;4492;48.736;9.092;2023-02-28T12:00:38;1.40;96.60
8914;DHT22;4492;48.736;9.092;2023-02-28T12:09:11;2.20;95.50
8914;DHT22;4492;48.736;9.092;2023-02-28T12:11:51;2.50;95.00
8914;DHT22;4492;48.736;9.092;2023-02-28T12:19:58;2.90;93.30
8914;DHT22;4492;48.736;9.092;2023-02-28T12:22:32;2.80;93.20
8914;DHT22;4492;48.736;9.092;2023-02-28T12:27:38;2.40;93.90
8914;DHT22;4492;48.736;9.092;2023-02-28T12:30:15;2.40;93.90
8914;DHT22;4492;48.736;9.092;2023-02-28T12:32:45;2.30;94.10
8914;DHT22;4492;48.736;9.092;2023-02-28T12:35:19;2.40;94.30
8914;DHT22;4492;48.736;9.092;2023-02-28T12:40:22;2.30;93.90
8914;DHT22;4492;48.736;9.092;2023-02-28T12:43:06;2.20;94.00
8914;DHT22;4492;48.736;9.092;2023-02-28T12:45:59;2.20;94.20
8914;DHT22;4492;48.736;9.092;2023-02-28T12:50:55;2.40;94.30
8914;DHT22;4492;48.736;9.092;2023-02-28T12:56:01;2.70;93.00
8914;DHT22;4492;48.736;9.092;2023-02-28T12:58:43;2.80;93.10
8914;DHT22;4492;48.736;9.092;2023-02-28T13:06:36;3.10;92.60
8914;DHT22;4492;48.736;9.092;2023-02-28T13:09:11;2.90;92.20
8914;DHT22;4492;48.736;9.092;2023-02-28T13:11:43;2.70;92.60
8914;DHT22;4492;48.736;9.092;2023-02-28T13:14:35;2.60;92.60
8914;DHT22;4492;48.736;9.092;2023-02-28T13:22:37;3.00;92.30
8914;DHT22;4492;48.736;9.092;2023-02-28T13:31:14;3.40;91.90
8914;DHT22;4492;48.736;9.092;2023-02-28T13:38:44;3.50;91.60
8914;DHT22;4492;48.736;9.092;2023-02-28T13:44:09;3.90;91.10
8914;DHT22;4492;48.736;9.092;2023-02-28T13:47:15;4.00;90.90
8914;DHT22;4492;48.736;9.092;2023-02-28T13:57:19;3.90;90.60
8914;DHT22;4492;48.736;9.092;2023-02-28T14:00:20;3.90;90.50
8914;DHT22;4492;48.736;9.092;2023-02-28T14:05:35;3.70;90.30
8914;DHT22;4492;48.736;9.092;2023-02-28T14:08:16;3.60;90.70
8914;DHT22;4492;48.736;9.092;2023-02-28T14:10:48;3.60;90.90
8914;DHT22;4492;48.736;9.092;2023-02-28T14:16:11;3.60;90.70
8914;DHT22;4492;48.736;9.092;2023-02-28T14:18:41;3.70;90.80
8914;DHT22;4492;48.736;9.092;2023-02-28T14:21:24;3.70;90.60
8914;DHT22;4492;48.736;9.092;2023-02-28T14:24:20;3.80;90.30
8914;DHT22;4492;48.736;9.092;2023-02-28T14:38:35;3.90;90.00
8914;DHT22;4492;48.736;9.092;2023-02-28T14:41:05;3.90;89.70
8914;DHT22;4492;48.736;9.092;2023-02-28T14:43:37;3.90;90.00
8914;DHT22;4492;48.736;9.092;2023-02-28T14:46:13;3.90;89.90
8914;DHT22;4492;48.736;9.092;2023-02-28T14:48:39;3.90;89.70
8914;DHT22;4492;48.736;9.092;2023-02-28T14:51:05;3.90;89.90
8914;DHT22;4492;48.736;9.092;2023-02-28T14:53:35;3.90;89.50
8914;DHT22;4492;48.736;9.092;2023-02-28T14:56:01;4.00;89.40
8914;DHT22;4492;48.736;9.092;2023-02-28T14:58:29;4.00;88.80
8914;DHT22;4492;48.736;9.092;2023-02-28T15:00:58;3.90;89.20
8914;DHT22;4492;48.736;9.092;2023-02-28T15:03:38;3.80;89.80
8914;DHT22;4492;48.736;9.092;2023-02-28T15:06:06;3.80;90.00
8914;DHT22;4492;48.736;9.092;2023-02-28T15:08:37;3.80;89.70
8914;DHT22;4492;48.736;9.092;2023-02-28T15:11:06;3.90;90.00
8914;DHT22;4492;48.736;9.092;2023-02-28T15:13:38;3.80;90.00
8914;DHT22;4492;48.736;9.092;2023-02-28T15:16:08;3.80;89.50
8914;DHT22;4492;48.736;9.092;2023-02-28T15:21:35;3.80;89.70
8914;DHT22;4492;48.736;9.092;2023-02-28T15:26:45;3.80;90.00
8914;DHT22;4492;48.736;9.092;2023-02-28T15:29:20;3.80;89.90
8914;DHT22;4492;48.736;9.092;2023-02-28T15:32:07;3.70;90.00
8914;DHT22;4492;48.736;9.092;2023-02-28T15:34:41;3.80;90.00
8914;DHT22;4492;48.736;9.092;2023-02-28T15:39:53;3.80;90.10
8914;DHT22;4492;48.736;9.092;2023-02-28T15:42:22;3.70;90.10
8914;DHT22;4492;48.736;9.092;2023-02-28T15:44:48;3.70;90.30
8914;DHT22;4492;48.736;9.092;2023-02-28T15:47:20;3.70;90.20
8914;DHT22;4492;48.736;9.092;2023-02-28T15:49:53;3.80;90.40
8914;DHT22;4492;48.736;9.092;2023-02-28T15:52:26;3.80;90.20
8914;DHT22;4492;48.736;9.092;2023-02-28T15:54:53;3.90;90.10
8914;DHT22;4492;48.736;9.092;2023-02-28T15:57:24;3.90;90.20
8914;DHT22;4492;48.736;9.092;2023-02-28T16:00:01;3.70;90.20
8914;DHT22;4492;48.736;9.092;2023-02-28T16:02:37;3.60;90.40
8914;DHT22;4492;48.736;9.092;2023-02-28T16:07:31;3.50;90.80
8914;DHT22;4492;48.736;9.092;2023-02-28T16:09:57;3.40;90.90
8914;DHT22;4492;48.736;9.092;2023-02-28T16:12:26;3.40;90.90
8914;DHT22;4492;48.736;9.092;2023-02-28T16:14:53;3.40;91.10
8914;DHT22;4492;48.736;9.092;2023-02-28T16:17:28;3.40;91.10
8914;DHT22;4492;48.736;9.092;2023-02-28T16:19:54;3.30;91.30
8914;DHT22;4492;48.736;9.092;2023-02-28T16:22:21;3.20;91.60
8914;DHT22;4492;48.736;9.092;2023-02-28T16:24:46;3.10;91.60
8914;DHT22;4492;48.736;9.092;2023-02-28T16:27:24;3.10;91.90
8914;DHT22;4492;48.736;9.092;2023-02-28T16:29:52;3.00;92.00
8914;DHT22;4492;48.736;9.092;2023-02-28T16:32:18;2.90;92.20
8914;DHT22;4492;48.736;9.092;2023-02-28T16:34:44;2.80;92.30
8914;DHT22;4492;48.736;9.092;2023-02-28T16:37:12;2.80;92.50
8914;DHT22;4492;48.736;9.092;2023-02-28T16:39:39;2.60;92.70
8914;DHT22;4492;48.736;9.092;2023-02-28T16:42:04;2.60;92.90
8914;DHT22;4492;48.736;9.092;2023-02-28T16:44:33;2.50;93.10
8914;DHT22;4492;48.736;9.092;2023-02-28T16:46:59;2.40;93.30
8914;DHT22;4492;48.736;9.092;2023-02-28T16:49:25;2.40;93.50
8914;DHT22;4492;48.736;9.092;2023-02-28T16:51:51;2.30;93.60
8914;DHT22;4492;48.736;9.092;2023-02-28T16:54:16;2.20;93.90
8914;DHT22;4492;48.736;9.092;2023-02-28T16:56:44;2.20;93.90
8914;DHT22;4492;48.736;9.092;2023-02-28T16:59:11;2.10;94.10
8914;DHT22;4492;48.736;9.092;2023-02-28T17:01:37;2.00;94.20
8914;DHT22;4492;48.736;9.092;2023-02-28T17:04:03;1.90;94.40
8914;DHT22;4492;48.736;9.092;2023-02-28T17:06:29;1.80;94.60
8914;DHT22;4492;48.736;9.092;2023-02-28T17:08:56;1.70;94.70
8914;DHT22;4492;48.736;9.092;2023-02-28T17:11:22;1.60;95.00
8914;DHT22;4492;48.736;9.092;2023-02-28T17:13:48;1.60;95.00
8914;DHT22;4492;48.736;9.092;2023-02-28T17:16:29;1.60;95.20
8914;DHT22;4492;48.736;9.092;2023-02-28T17:19:04;1.60;95.30
8914;DHT22;4492;48.736;9.092;2023-02-28T17:21:31;1.50;95.50
8914;DHT22;4492;48.736;9.092;2023-02-28T17:23:57;1.30;95.70
8914;DHT22;4492;48.736;9.092;2023-02-28T17:26:23;1.20;95.90
8914;DHT22;4492;48.736;9.092;2023-02-28T17:28:53;1.20;96.20
8914;DHT22;4492;48.736;9.092;2023-02-28T17:31:24;1.20;96.30
8914;DHT22;4492;48.736;9.092;2023-02-28T17:33:51;1.20;96.40
8914;DHT22;4492;48.736;9.092;2023-02-28T17:36:22;1.10;96.60
8914;DHT22;4492;48.736;9.092;2023-02-28T17:38:49;1.10;96.70
8914;DHT22;4492;48.736;9.092;2023-02-28T17:41:14;1.00;96.60
8914;DHT22;4492;48.736;9.092;2023-02-28T17:43:40;1.00;97.10
8914;DHT22;4492;48.736;9.092;2023-02-28T17:46:16;1.00;97.20
8914;DHT22;4492;48.736;9.092;2023-02-28T17:48:43;0.90;97.40
8914;DHT22;4492;48.736;9.092;2023-02-28T17:51:12;0.80;97.70
8914;DHT22;4492;48.736;9.092;2023-02-28T17:53:38;0.80;97.90
8914;DHT22;4492;48.736;9.092;2023-02-28T17:56:04;0.80;98.00
8914;DHT22;4492;48.736;9.092;2023-02-28T17:58:30;0.80;97.90
8914;DHT22;4492;48.736;9.092;2023-02-28T18:00:56;0.70;97.90
8914;DHT22;4492;48.736;9.092;2023-02-28T18:03:22;0.60;98.30
8914;DHT22;4492;48.736;9.092;2023-02-28T18:05:49;0.50;98.50
8914;DHT22;4492;48.736;9.092;2023-02-28T18:08:15;0.40;98.60
8914;DHT22;4492;48.736;9.092;2023-02-28T18:10:41;0.30;98.80
8914;DHT22;4492;48.736;9.092;2023-02-28T18:13:07;0.30;99.50
8914;DHT22;4492;48.736;9.092;2023-02-28T18:15:33;0.30;99.90
8914;DHT22;4492;48.736;9.092;2023-02-28T18:17:59;0.20;99.70
8914;DHT22;4492;48.736;9.092;2023-02-28T18:20:24;0.20;99.80
8914;DHT22;4492;48.736;9.092;2023-02-28T18:22:51;0.20;99.90
8914;DHT22;4492;48.736;9.092;2023-02-28T18:25:16;0.10;99.90
8914;DHT22;4492;48.736;9.092;2023-02-28T18:27:43;0.10;99.90